Rachel, WV (26587)

1:08 AM EST on February 13, 2016 (GMT -0500)
Curtisville | | Change Station
CLOSE
Current Station
Personal Weather Station
Location: Mannington, WV
Elevation: 1017 ft
Nearby Weather Stations
Active Advisory: Wind Chill Advisory

Elev 1017 ft 39.52 °N, 80.44 °W | Updated 12 minutes ago

Overcast
Overcast
15.8 °F
Feels Like 16 °F
N
0.0
Wind Variable Wind from SSE

Today
High -- | Low -- °F
--% Chance of Precip.
Yesterday
High -- | Low -- °F
Precip. -- in
Pressure 30.14 in
Visibility 9.0 miles
Clouds Clear
Windchill 16 °F
Dew Point 6 °F
Humidity 65%
Rainfall 0.00 in
Snow Depth Not available.
7:16 AM 5:54 PM
Waxing Crescent, 27% visible
METAR KCKB 130553Z AUTO 29014KT 9SM CLR M09/M16 A3010 RMK AO2 PK WND 28031/0501 UPE27 SLP205 P0000 60000 T10891156 11061 21089 51029 TSNO
Pressure 30.14 in
Visibility 9.0 miles
Clouds Clear
Windchill 16 °F
Dew Point 6 °F
Humidity 65%
Rainfall 0.00 in
Snow Depth Not available.
7:16 AM 5:54 PM
Waxing Crescent, 27% visible
METAR KCKB 130553Z AUTO 29014KT 9SM CLR M09/M16 A3010 RMK AO2 PK WND 28031/0501 UPE27 SLP205 P0000 60000 T10891156 11061 21089 51029 TSNO

10-Day Weather Forecast

Almanac

Astronomy

Feb. 13, 2016 Rise Set
Actual Time
Civil Twilight
Nautical Twilight
Astronomical Twilight
Moon
Length of Visible Light
Length of Day
Tomorrow will be .
, % of the Moon is Illuminated

Today's Extremes

State Highs State Lows

Community

WunderPhotos

Upload Photos

1,892,508 photos uploaded!

WunderBlog® & News

Nearby

Air Quality

  Air Quality AQ Index Pollutant
Not available.

Snow Depth

Station Depth Elevation

Earthquake Activity

City Distance Mag. Time & Date
Minimum magnitude displayed is 2.5.

Coastal Water Temperatures

Place Temperature

Stations

Nearby Weather Stations

Station Location Temp. Windchill Dew Point Humidity Wind Precip. Elev Updated Type
                   

Watches & Warnings

Wind Chill Advisory
Issued: 10:29 PM EST Feb. 12, 2016 – National Weather Service

... Wind Chill Advisory remains in effect until 9 am EST Sunday...

* wind chill... as low as 17 below due to temperatures 4 below to
14 above zero... and winds northwest 10 to 20 mph with gusts up
to 35 mph.

* Impacts... frost bite and hypothermia are possible if
precautions are not taken.